sensor_id;sensor_type;location;lat;lon;timestamp;temperature;humidity
21355;DHT22;10835;50.148;19.760;2022-07-17T00:02:10;26.90;45.90
21355;DHT22;10835;50.148;19.760;2022-07-17T00:04:38;26.90;46.10
21355;DHT22;10835;50.148;19.760;2022-07-17T00:07:07;26.90;45.60
21355;DHT22;10835;50.148;19.760;2022-07-17T00:09:35;26.80;45.60
21355;DHT22;10835;50.148;19.760;2022-07-17T00:12:04;26.90;45.80
21355;DHT22;10835;50.148;19.760;2022-07-17T00:14:32;26.80;45.50
21355;DHT22;10835;50.148;19.760;2022-07-17T00:17:02;26.80;45.50
21355;DHT22;10835;50.148;19.760;2022-07-17T00:19:32;26.70;45.50
21355;DHT22;10835;50.148;19.760;2022-07-17T00:22:00;26.70;45.40
21355;DHT22;10835;50.148;19.760;2022-07-17T00:24:29;26.70;45.40
21355;DHT22;10835;50.148;19.760;2022-07-17T00:26:57;26.70;45.20
21355;DHT22;10835;50.148;19.760;2022-07-17T00:29:25;26.60;45.40
21355;DHT22;10835;50.148;19.760;2022-07-17T00:31:54;26.70;45.50
21355;DHT22;10835;50.148;19.760;2022-07-17T00:34:24;26.70;45.60
21355;DHT22;10835;50.148;19.760;2022-07-17T00:36:52;26.60;45.10
21355;DHT22;10835;50.148;19.760;2022-07-17T00:39:20;26.60;45.70
21355;DHT22;10835;50.148;19.760;2022-07-17T00:41:48;26.60;45.50
21355;DHT22;10835;50.148;19.760;2022-07-17T00:44:17;26.50;45.90
21355;DHT22;10835;50.148;19.760;2022-07-17T00:46:45;26.50;45.80
21355;DHT22;10835;50.148;19.760;2022-07-17T00:49:13;26.40;45.50
21355;DHT22;10835;50.148;19.760;2022-07-17T00:51:43;26.20;45.40
21355;DHT22;10835;50.148;19.760;2022-07-17T00:54:12;26.40;45.70
21355;DHT22;10835;50.148;19.760;2022-07-17T00:56:42;26.20;45.60
21355;DHT22;10835;50.148;19.760;2022-07-17T00:59:15;26.30;46.00
21355;DHT22;10835;50.148;19.760;2022-07-17T01:01:43;26.30;45.90
21355;DHT22;10835;50.148;19.760;2022-07-17T01:04:11;26.30;45.90
21355;DHT22;10835;50.148;19.760;2022-07-17T01:06:40;26.20;45.90
21355;DHT22;10835;50.148;19.760;2022-07-17T01:09:11;26.30;45.80
21355;DHT22;10835;50.148;19.760;2022-07-17T01:11:39;26.30;45.60
21355;DHT22;10835;50.148;19.760;2022-07-17T01:14:08;26.50;45.50
21355;DHT22;10835;50.148;19.760;2022-07-17T01:16:37;26.30;45.60
21355;DHT22;10835;50.148;19.760;2022-07-17T01:19:07;26.20;45.80
21355;DHT22;10835;50.148;19.760;2022-07-17T01:21:42;26.20;45.80
21355;DHT22;10835;50.148;19.760;2022-07-17T01:24:11;26.10;46.30
21355;DHT22;10835;50.148;19.760;2022-07-17T01:26:41;26.10;46.20
21355;DHT22;10835;50.148;19.760;2022-07-17T01:29:11;26.20;46.20
21355;DHT22;10835;50.148;19.760;2022-07-17T01:31:40;26.20;45.90
21355;DHT22;10835;50.148;19.760;2022-07-17T01:34:10;26.10;46.00
21355;DHT22;10835;50.148;19.760;2022-07-17T01:36:42;26.00;45.60
21355;DHT22;10835;50.148;19.760;2022-07-17T01:39:10;26.10;46.10
21355;DHT22;10835;50.148;19.760;2022-07-17T01:41:38;26.00;45.90
21355;DHT22;10835;50.148;19.760;2022-07-17T01:44:07;26.10;45.90
21355;DHT22;10835;50.148;19.760;2022-07-17T01:46:36;26.10;45.50
21355;DHT22;10835;50.148;19.760;2022-07-17T01:49:04;26.10;45.60
21355;DHT22;10835;50.148;19.760;2022-07-17T01:51:32;26.10;45.50
21355;DHT22;10835;50.148;19.760;2022-07-17T01:54:02;26.10;45.70
21355;DHT22;10835;50.148;19.760;2022-07-17T01:56:30;26.20;45.50
21355;DHT22;10835;50.148;19.760;2022-07-17T01:58:59;26.20;45.50
21355;DHT22;10835;50.148;19.760;2022-07-17T02:01:29;26.10;45.20
21355;DHT22;10835;50.148;19.760;2022-07-17T02:03:58;26.10;45.30
21355;DHT22;10835;50.148;19.760;2022-07-17T02:06:26;26.20;45.20
21355;DHT22;10835;50.148;19.760;2022-07-17T02:08:55;26.20;45.10
21355;DHT22;10835;50.148;19.760;2022-07-17T02:11:24;26.20;45.00
21355;DHT22;10835;50.148;19.760;2022-07-17T02:13:53;26.20;44.90
21355;DHT22;10835;50.148;19.760;2022-07-17T02:16:21;26.10;45.20
21355;DHT22;10835;50.148;19.760;2022-07-17T02:18:50;26.10;45.00
21355;DHT22;10835;50.148;19.760;2022-07-17T02:21:18;26.10;45.10
21355;DHT22;10835;50.148;19.760;2022-07-17T02:23:46;26.10;44.90
21355;DHT22;10835;50.148;19.760;2022-07-17T02:26:14;26.10;44.80
21355;DHT22;10835;50.148;19.760;2022-07-17T02:28:44;26.10;45.20
21355;DHT22;10835;50.148;19.760;2022-07-17T02:31:12;26.00;45.30
21355;DHT22;10835;50.148;19.760;2022-07-17T02:33:41;26.00;45.60
21355;DHT22;10835;50.148;19.760;2022-07-17T02:36:09;26.00;46.10
21355;DHT22;10835;50.148;19.760;2022-07-17T02:38:37;26.00;47.40
21355;DHT22;10835;50.148;19.760;2022-07-17T02:41:06;25.90;47.50
21355;DHT22;10835;50.148;19.760;2022-07-17T02:43:34;26.00;48.10
21355;DHT22;10835;50.148;19.760;2022-07-17T02:46:04;26.00;48.00
21355;DHT22;10835;50.148;19.760;2022-07-17T02:48:32;26.00;47.60
21355;DHT22;10835;50.148;19.760;2022-07-17T02:51:01;26.10;45.70
21355;DHT22;10835;50.148;19.760;2022-07-17T02:53:29;26.20;45.70
21355;DHT22;10835;50.148;19.760;2022-07-17T02:55:57;26.10;45.90
21355;DHT22;10835;50.148;19.760;2022-07-17T02:58:26;26.00;46.10
21355;DHT22;10835;50.148;19.760;2022-07-17T03:00:54;26.00;45.70
21355;DHT22;10835;50.148;19.760;2022-07-17T03:03:23;26.00;45.70
21355;DHT22;10835;50.148;19.760;2022-07-17T03:05:52;26.10;45.90
21355;DHT22;10835;50.148;19.760;2022-07-17T03:08:20;26.10;45.60
21355;DHT22;10835;50.148;19.760;2022-07-17T03:10:48;26.10;45.50
21355;DHT22;10835;50.148;19.760;2022-07-17T03:13:17;26.20;45.60
21355;DHT22;10835;50.148;19.760;2022-07-17T03:15:45;26.20;46.10
21355;DHT22;10835;50.148;19.760;2022-07-17T03:18:13;26.00;45.70
21355;DHT22;10835;50.148;19.760;2022-07-17T03:20:43;26.10;45.60
21355;DHT22;10835;50.148;19.760;2022-07-17T03:23:12;26.10;45.40
21355;DHT22;10835;50.148;19.760;2022-07-17T03:25:40;26.10;45.40
21355;DHT22;10835;50.148;19.760;2022-07-17T03:28:08;26.00;45.50
21355;DHT22;10835;50.148;19.760;2022-07-17T03:30:36;26.00;46.00
21355;DHT22;10835;50.148;19.760;2022-07-17T03:33:05;26.00;46.20
21355;DHT22;10835;50.148;19.760;2022-07-17T03:35:33;26.20;46.70
21355;DHT22;10835;50.148;19.760;2022-07-17T03:38:03;26.20;46.80
21355;DHT22;10835;50.148;19.760;2022-07-17T03:40:31;26.30;46.70
21355;DHT22;10835;50.148;19.760;2022-07-17T03:42:59;26.30;46.20
21355;DHT22;10835;50.148;19.760;2022-07-17T03:45:28;26.40;46.10
21355;DHT22;10835;50.148;19.760;2022-07-17T03:47:56;26.40;45.80
21355;DHT22;10835;50.148;19.760;2022-07-17T03:50:25;26.50;45.60
21355;DHT22;10835;50.148;19.760;2022-07-17T03:52:53;26.60;45.50
21355;DHT22;10835;50.148;19.760;2022-07-17T03:55:22;26.50;45.60
21355;DHT22;10835;50.148;19.760;2022-07-17T03:57:51;26.60;46.00
21355;DHT22;10835;50.148;19.760;2022-07-17T04:00:19;26.60;47.40
21355;DHT22;10835;50.148;19.760;2022-07-17T04:02:47;26.60;46.90
21355;DHT22;10835;50.148;19.760;2022-07-17T04:05:15;26.70;47.00
21355;DHT22;10835;50.148;19.760;2022-07-17T04:07:44;26.50;47.20
21355;DHT22;10835;50.148;19.760;2022-07-17T04:10:13;26.40;47.70
21355;DHT22;10835;50.148;19.760;2022-07-17T04:12:43;26.40;48.10
21355;DHT22;10835;50.148;19.760;2022-07-17T04:15:11;26.50;48.20
21355;DHT22;10835;50.148;19.760;2022-07-17T04:18:00;26.50;48.40
21355;DHT22;10835;50.148;19.760;2022-07-17T04:20:28;26.30;48.70
21355;DHT22;10835;50.148;19.760;2022-07-17T04:22:56;26.40;48.80
21355;DHT22;10835;50.148;19.760;2022-07-17T04:25:26;26.30;49.00
21355;DHT22;10835;50.148;19.760;2022-07-17T04:27:56;26.20;49.30
21355;DHT22;10835;50.148;19.760;2022-07-17T04:30:24;26.20;49.40
21355;DHT22;10835;50.148;19.760;2022-07-17T04:32:52;26.30;49.50
21355;DHT22;10835;50.148;19.760;2022-07-17T04:35:20;26.40;49.40
21355;DHT22;10835;50.148;19.760;2022-07-17T04:37:49;26.30;49.60
21355;DHT22;10835;50.148;19.760;2022-07-17T04:40:17;26.20;50.20
21355;DHT22;10835;50.148;19.760;2022-07-17T04:42:46;26.20;50.30
21355;DHT22;10835;50.148;19.760;2022-07-17T04:45:16;26.00;50.20
21355;DHT22;10835;50.148;19.760;2022-07-17T04:47:44;26.10;50.40
21355;DHT22;10835;50.148;19.760;2022-07-17T04:50:12;25.90;50.50
21355;DHT22;10835;50.148;19.760;2022-07-17T04:52:41;26.00;50.70
21355;DHT22;10835;50.148;19.760;2022-07-17T04:55:09;26.10;50.30
21355;DHT22;10835;50.148;19.760;2022-07-17T04:57:37;25.70;50.80
21355;DHT22;10835;50.148;19.760;2022-07-17T05:00:08;25.60;51.70
21355;DHT22;10835;50.148;19.760;2022-07-17T05:02:38;25.30;51.80
21355;DHT22;10835;50.148;19.760;2022-07-17T05:05:07;25.30;52.30
21355;DHT22;10835;50.148;19.760;2022-07-17T05:07:35;25.40;52.50
21355;DHT22;10835;50.148;19.760;2022-07-17T05:10:05;25.30;52.60
21355;DHT22;10835;50.148;19.760;2022-07-17T05:12:35;25.20;52.70
21355;DHT22;10835;50.148;19.760;2022-07-17T05:15:05;25.60;52.90
21355;DHT22;10835;50.148;19.760;2022-07-17T05:17:33;25.70;52.50
21355;DHT22;10835;50.148;19.760;2022-07-17T05:20:04;25.80;52.40
21355;DHT22;10835;50.148;19.760;2022-07-17T05:22:32;26.50;52.30
21355;DHT22;10835;50.148;19.760;2022-07-17T05:25:01;26.50;51.60
21355;DHT22;10835;50.148;19.760;2022-07-17T05:27:29;26.90;51.40
21355;DHT22;10835;50.148;19.760;2022-07-17T05:29:57;27.10;50.30
21355;DHT22;10835;50.148;19.760;2022-07-17T05:32:25;26.80;49.70
21355;DHT22;10835;50.148;19.760;2022-07-17T05:34:53;26.80;50.40
21355;DHT22;10835;50.148;19.760;2022-07-17T05:37:23;27.10;50.80
21355;DHT22;10835;50.148;19.760;2022-07-17T05:39:51;27.10;50.50
21355;DHT22;10835;50.148;19.760;2022-07-17T05:42:20;27.20;50.00
21355;DHT22;10835;50.148;19.760;2022-07-17T05:44:48;27.50;50.10
21355;DHT22;10835;50.148;19.760;2022-07-17T05:47:16;27.60;49.50
21355;DHT22;10835;50.148;19.760;2022-07-17T05:49:44;27.40;49.60
21355;DHT22;10835;50.148;19.760;2022-07-17T05:52:12;27.40;49.80
21355;DHT22;10835;50.148;19.760;2022-07-17T05:54:42;27.70;49.90
21355;DHT22;10835;50.148;19.760;2022-07-17T05:57:10;28.00;49.50
21355;DHT22;10835;50.148;19.760;2022-07-17T05:59:39;28.10;49.40
21355;DHT22;10835;50.148;19.760;2022-07-17T06:02:07;28.00;48.90
21355;DHT22;10835;50.148;19.760;2022-07-17T06:04:36;27.80;48.80
21355;DHT22;10835;50.148;19.760;2022-07-17T06:07:05;27.70;48.80
21355;DHT22;10835;50.148;19.760;2022-07-17T06:09:34;27.50;49.30
21355;DHT22;10835;50.148;19.760;2022-07-17T06:12:04;27.50;50.10
21355;DHT22;10835;50.148;19.760;2022-07-17T06:14:32;27.50;49.60
21355;DHT22;10835;50.148;19.760;2022-07-17T06:17:00;28.20;49.40
21355;DHT22;10835;50.148;19.760;2022-07-17T06:19:28;28.20;48.10
21355;DHT22;10835;50.148;19.760;2022-07-17T06:21:56;28.30;47.80
21355;DHT22;10835;50.148;19.760;2022-07-17T06:24:25;28.20;48.30
21355;DHT22;10835;50.148;19.760;2022-07-17T06:26:53;28.50;48.00
21355;DHT22;10835;50.148;19.760;2022-07-17T06:29:23;28.50;47.90
21355;DHT22;10835;50.148;19.760;2022-07-17T06:31:51;28.30;48.10
21355;DHT22;10835;50.148;19.760;2022-07-17T06:34:19;28.40;48.10
21355;DHT22;10835;50.148;19.760;2022-07-17T06:36:47;28.10;48.70
21355;DHT22;10835;50.148;19.760;2022-07-17T06:39:15;27.80;48.90
21355;DHT22;10835;50.148;19.760;2022-07-17T06:41:44;28.00;49.40
21355;DHT22;10835;50.148;19.760;2022-07-17T06:44:14;28.00;47.90
21355;DHT22;10835;50.148;19.760;2022-07-17T06:46:44;28.00;47.90
21355;DHT22;10835;50.148;19.760;2022-07-17T06:49:12;27.60;47.00
21355;DHT22;10835;50.148;19.760;2022-07-17T06:51:41;27.40;48.30
21355;DHT22;10835;50.148;19.760;2022-07-17T06:54:12;27.50;48.10
21355;DHT22;10835;50.148;19.760;2022-07-17T06:56:40;27.60;47.60
21355;DHT22;10835;50.148;19.760;2022-07-17T06:59:09;28.00;46.90
21355;DHT22;10835;50.148;19.760;2022-07-17T07:01:37;28.00;46.00
21355;DHT22;10835;50.148;19.760;2022-07-17T07:04:09;27.70;46.80
21355;DHT22;10835;50.148;19.760;2022-07-17T07:06:37;28.10;48.30
21355;DHT22;10835;50.148;19.760;2022-07-17T07:09:05;28.40;47.20
21355;DHT22;10835;50.148;19.760;2022-07-17T07:11:39;28.50;47.40
21355;DHT22;10835;50.148;19.760;2022-07-17T07:14:07;28.90;45.70
21355;DHT22;10835;50.148;19.760;2022-07-17T07:16:36;28.70;45.30
21355;DHT22;10835;50.148;19.760;2022-07-17T07:19:04;28.20;45.60
21355;DHT22;10835;50.148;19.760;2022-07-17T07:21:34;28.50;44.80
21355;DHT22;10835;50.148;19.760;2022-07-17T07:24:03;28.30;44.90
21355;DHT22;10835;50.148;19.760;2022-07-17T07:26:31;28.20;45.50
21355;DHT22;10835;50.148;19.760;2022-07-17T07:29:00;27.90;45.30
21355;DHT22;10835;50.148;19.760;2022-07-17T07:31:28;28.00;44.80
21355;DHT22;10835;50.148;19.760;2022-07-17T07:33:57;27.80;46.00
21355;DHT22;10835;50.148;19.760;2022-07-17T07:36:25;27.60;45.70
21355;DHT22;10835;50.148;19.760;2022-07-17T07:38:57;27.90;44.50
21355;DHT22;10835;50.148;19.760;2022-07-17T07:41:26;27.80;45.50
21355;DHT22;10835;50.148;19.760;2022-07-17T07:43:55;28.10;45.60
21355;DHT22;10835;50.148;19.760;2022-07-17T07:46:23;28.20;44.80
21355;DHT22;10835;50.148;19.760;2022-07-17T07:48:52;28.40;44.60
21355;DHT22;10835;50.148;19.760;2022-07-17T07:51:20;28.70;43.80
21355;DHT22;10835;50.148;19.760;2022-07-17T07:54:10;28.60;43.80
21355;DHT22;10835;50.148;19.760;2022-07-17T07:56:38;28.60;43.60
21355;DHT22;10835;50.148;19.760;2022-07-17T07:59:06;28.80;43.40
21355;DHT22;10835;50.148;19.760;2022-07-17T08:01:35;28.60;44.00
21355;DHT22;10835;50.148;19.760;2022-07-17T08:04:03;28.60;43.00
21355;DHT22;10835;50.148;19.760;2022-07-17T08:06:34;28.70;42.30
21355;DHT22;10835;50.148;19.760;2022-07-17T08:09:03;28.80;43.30
21355;DHT22;10835;50.148;19.760;2022-07-17T08:11:32;29.00;43.30
21355;DHT22;10835;50.148;19.760;2022-07-17T08:14:01;29.20;41.80
21355;DHT22;10835;50.148;19.760;2022-07-17T08:16:39;28.80;42.40
21355;DHT22;10835;50.148;19.760;2022-07-17T08:19:07;28.40;43.00
21355;DHT22;10835;50.148;19.760;2022-07-17T08:21:35;29.10;43.20
21355;DHT22;10835;50.148;19.760;2022-07-17T08:24:04;29.40;43.10
21355;DHT22;10835;50.148;19.760;2022-07-17T08:26:34;29.60;41.40
21355;DHT22;10835;50.148;19.760;2022-07-17T08:29:03;29.60;40.10
21355;DHT22;10835;50.148;19.760;2022-07-17T08:31:31;29.70;40.90
21355;DHT22;10835;50.148;19.760;2022-07-17T08:34:00;29.50;41.60
21355;DHT22;10835;50.148;19.760;2022-07-17T08:36:28;29.40;41.40
21355;DHT22;10835;50.148;19.760;2022-07-17T08:38:57;29.50;41.40
21355;DHT22;10835;50.148;19.760;2022-07-17T08:41:26;29.10;40.90
21355;DHT22;10835;50.148;19.760;2022-07-17T08:43:57;29.20;41.20
21355;DHT22;10835;50.148;19.760;2022-07-17T08:46:26;29.50;40.30
21355;DHT22;10835;50.148;19.760;2022-07-17T08:48:58;29.70;39.40
21355;DHT22;10835;50.148;19.760;2022-07-17T08:51:27;29.70;39.30
21355;DHT22;10835;50.148;19.760;2022-07-17T08:53:56;29.90;39.60
21355;DHT22;10835;50.148;19.760;2022-07-17T08:56:25;29.60;39.70
21355;DHT22;10835;50.148;19.760;2022-07-17T08:58:54;29.50;40.20
21355;DHT22;10835;50.148;19.760;2022-07-17T09:01:24;29.50;39.80
21355;DHT22;10835;50.148;19.760;2022-07-17T09:03:55;29.50;39.70
21355;DHT22;10835;50.148;19.760;2022-07-17T09:06:27;30.00;37.70
21355;DHT22;10835;50.148;19.760;2022-07-17T09:09:01;30.20;37.60
21355;DHT22;10835;50.148;19.760;2022-07-17T09:11:41;29.90;39.30
21355;DHT22;10835;50.148;19.760;2022-07-17T09:14:10;29.90;39.50
21355;DHT22;10835;50.148;19.760;2022-07-17T09:16:49;30.10;38.50
21355;DHT22;10835;50.148;19.760;2022-07-17T09:19:29;30.10;38.60
21355;DHT22;10835;50.148;19.760;2022-07-17T09:22:07;30.10;38.20
21355;DHT22;10835;50.148;19.760;2022-07-17T09:24:41;30.50;37.70
21355;DHT22;10835;50.148;19.760;2022-07-17T09:27:13;30.20;37.90
21355;DHT22;10835;50.148;19.760;2022-07-17T09:29:54;30.60;37.40
21355;DHT22;10835;50.148;19.760;2022-07-17T09:32:26;30.80;38.20
21355;DHT22;10835;50.148;19.760;2022-07-17T09:34:56;30.60;38.50
21355;DHT22;10835;50.148;19.760;2022-07-17T09:37:26;30.50;37.00
21355;DHT22;10835;50.148;19.760;2022-07-17T09:39:56;30.20;37.00
21355;DHT22;10835;50.148;19.760;2022-07-17T09:42:26;29.80;37.40
21355;DHT22;10835;50.148;19.760;2022-07-17T09:44:59;29.90;38.10
21355;DHT22;10835;50.148;19.760;2022-07-17T09:47:31;29.60;37.40
21355;DHT22;10835;50.148;19.760;2022-07-17T09:50:01;29.90;38.00
21355;DHT22;10835;50.148;19.760;2022-07-17T09:52:32;29.80;38.70
21355;DHT22;10835;50.148;19.760;2022-07-17T09:55:02;29.90;38.20
21355;DHT22;10835;50.148;19.760;2022-07-17T09:57:54;30.20;38.80
21355;DHT22;10835;50.148;19.760;2022-07-17T10:00:22;30.50;37.00
21355;DHT22;10835;50.148;19.760;2022-07-17T10:02:52;30.90;38.00
21355;DHT22;10835;50.148;19.760;2022-07-17T10:05:21;30.80;35.90
21355;DHT22;10835;50.148;19.760;2022-07-17T10:07:50;31.00;37.10
21355;DHT22;10835;50.148;19.760;2022-07-17T10:10:18;31.50;36.50
21355;DHT22;10835;50.148;19.760;2022-07-17T10:12:49;31.40;37.40
21355;DHT22;10835;50.148;19.760;2022-07-17T10:15:18;31.10;35.60
21355;DHT22;10835;50.148;19.760;2022-07-17T10:18:07;31.00;37.20
21355;DHT22;10835;50.148;19.760;2022-07-17T10:20:36;30.50;36.40
21355;DHT22;10835;50.148;19.760;2022-07-17T10:23:12;30.10;35.40
21355;DHT22;10835;50.148;19.760;2022-07-17T10:25:40;29.70;35.70
21355;DHT22;10835;50.148;19.760;2022-07-17T10:28:09;29.50;36.60
21355;DHT22;10835;50.148;19.760;2022-07-17T10:30:41;29.80;36.60
21355;DHT22;10835;50.148;19.760;2022-07-17T10:33:17;30.20;36.60
21355;DHT22;10835;50.148;19.760;2022-07-17T10:35:47;30.00;35.90
21355;DHT22;10835;50.148;19.760;2022-07-17T10:38:16;29.90;36.50
21355;DHT22;10835;50.148;19.760;2022-07-17T10:40:45;30.00;37.20
21355;DHT22;10835;50.148;19.760;2022-07-17T10:43:13;30.00;36.20
21355;DHT22;10835;50.148;19.760;2022-07-17T10:45:42;30.10;37.40
21355;DHT22;10835;50.148;19.760;2022-07-17T10:48:16;30.60;37.20
21355;DHT22;10835;50.148;19.760;2022-07-17T10:50:47;30.80;37.70
21355;DHT22;10835;50.148;19.760;2022-07-17T10:53:17;31.00;35.70
21355;DHT22;10835;50.148;19.760;2022-07-17T10:55:52;31.00;36.30
21355;DHT22;10835;50.148;19.760;2022-07-17T10:58:23;30.80;35.60
21355;DHT22;10835;50.148;19.760;2022-07-17T11:01:14;30.40;36.20
21355;DHT22;10835;50.148;19.760;2022-07-17T11:03:48;30.10;36.60
21355;DHT22;10835;50.148;19.760;2022-07-17T11:06:17;29.90;37.80
21355;DHT22;10835;50.148;19.760;2022-07-17T11:08:48;30.00;37.10
21355;DHT22;10835;50.148;19.760;2022-07-17T11:11:20;30.40;37.80
21355;DHT22;10835;50.148;19.760;2022-07-17T11:14:07;30.60;35.20
21355;DHT22;10835;50.148;19.760;2022-07-17T11:16:36;30.90;36.40
21355;DHT22;10835;50.148;19.760;2022-07-17T11:19:06;30.60;36.00
21355;DHT22;10835;50.148;19.760;2022-07-17T11:21:44;30.80;35.60
21355;DHT22;10835;50.148;19.760;2022-07-17T11:24:13;31.00;35.70
21355;DHT22;10835;50.148;19.760;2022-07-17T11:26:42;31.10;35.90
21355;DHT22;10835;50.148;19.760;2022-07-17T11:29:13;31.70;35.60
21355;DHT22;10835;50.148;19.760;2022-07-17T11:31:43;31.70;34.90
21355;DHT22;10835;50.148;19.760;2022-07-17T11:34:13;31.20;34.00
21355;DHT22;10835;50.148;19.760;2022-07-17T11:36:44;31.20;35.00
21355;DHT22;10835;50.148;19.760;2022-07-17T11:39:14;31.20;35.30
21355;DHT22;10835;50.148;19.760;2022-07-17T11:41:45;31.20;35.00
21355;DHT22;10835;50.148;19.760;2022-07-17T11:44:15;31.00;34.10
21355;DHT22;10835;50.148;19.760;2022-07-17T11:46:47;31.10;34.80
21355;DHT22;10835;50.148;19.760;2022-07-17T11:49:25;31.30;33.50
21355;DHT22;10835;50.148;19.760;2022-07-17T11:51:55;31.40;33.40
21355;DHT22;10835;50.148;19.760;2022-07-17T11:54:24;31.20;32.50
21355;DHT22;10835;50.148;19.760;2022-07-17T11:56:54;31.00;32.50
21355;DHT22;10835;50.148;19.760;2022-07-17T11:59:25;31.00;33.10
21355;DHT22;10835;50.148;19.760;2022-07-17T12:01:55;31.20;33.90
21355;DHT22;10835;50.148;19.760;2022-07-17T12:04:25;31.10;33.70
21355;DHT22;10835;50.148;19.760;2022-07-17T12:06:59;30.90;35.00
21355;DHT22;10835;50.148;19.760;2022-07-17T12:09:30;31.20;34.60
21355;DHT22;10835;50.148;19.760;2022-07-17T12:12:01;31.40;33.70
21355;DHT22;10835;50.148;19.760;2022-07-17T12:14:30;31.70;32.20
21355;DHT22;10835;50.148;19.760;2022-07-17T12:17:03;31.80;32.30
21355;DHT22;10835;50.148;19.760;2022-07-17T12:19:34;31.90;32.50
21355;DHT22;10835;50.148;19.760;2022-07-17T12:22:04;31.90;33.70
21355;DHT22;10835;50.148;19.760;2022-07-17T12:24:38;31.70;34.50
21355;DHT22;10835;50.148;19.760;2022-07-17T12:27:09;32.00;32.80
21355;DHT22;10835;50.148;19.760;2022-07-17T12:29:38;32.10;31.90
21355;DHT22;10835;50.148;19.760;2022-07-17T12:32:08;32.20;32.50
21355;DHT22;10835;50.148;19.760;2022-07-17T12:34:40;32.20;33.00
21355;DHT22;10835;50.148;19.760;2022-07-17T12:37:12;32.20;32.80
21355;DHT22;10835;50.148;19.760;2022-07-17T12:39:40;31.90;31.40
21355;DHT22;10835;50.148;19.760;2022-07-17T12:42:08;31.90;32.30
21355;DHT22;10835;50.148;19.760;2022-07-17T12:44:37;31.70;32.70
21355;DHT22;10835;50.148;19.760;2022-07-17T12:47:05;31.90;32.60
21355;DHT22;10835;50.148;19.760;2022-07-17T12:49:34;32.10;32.40
21355;DHT22;10835;50.148;19.760;2022-07-17T12:52:06;32.10;33.50
21355;DHT22;10835;50.148;19.760;2022-07-17T12:54:35;31.90;32.30
21355;DHT22;10835;50.148;19.760;2022-07-17T12:57:03;31.90;32.90
21355;DHT22;10835;50.148;19.760;2022-07-17T12:59:34;32.00;33.10
21355;DHT22;10835;50.148;19.760;2022-07-17T13:02:02;32.20;32.80
21355;DHT22;10835;50.148;19.760;2022-07-17T13:04:34;32.10;34.00
21355;DHT22;10835;50.148;19.760;2022-07-17T13:07:06;32.30;33.20
21355;DHT22;10835;50.148;19.760;2022-07-17T13:09:35;32.10;33.80
21355;DHT22;10835;50.148;19.760;2022-07-17T13:12:03;32.30;32.90
21355;DHT22;10835;50.148;19.760;2022-07-17T13:14:32;32.20;32.00
21355;DHT22;10835;50.148;19.760;2022-07-17T13:17:00;32.00;32.30
21355;DHT22;10835;50.148;19.760;2022-07-17T13:19:28;32.00;33.20
21355;DHT22;10835;50.148;19.760;2022-07-17T13:21:57;31.70;32.70
21355;DHT22;10835;50.148;19.760;2022-07-17T13:24:26;31.70;32.90
21355;DHT22;10835;50.148;19.760;2022-07-17T13:26:55;32.00;31.50
21355;DHT22;10835;50.148;19.760;2022-07-17T13:29:26;31.70;31.50
21355;DHT22;10835;50.148;19.760;2022-07-17T13:31:55;32.00;33.40
21355;DHT22;10835;50.148;19.760;2022-07-17T13:34:23;32.00;32.90
21355;DHT22;10835;50.148;19.760;2022-07-17T13:36:52;32.00;32.50
21355;DHT22;10835;50.148;19.760;2022-07-17T13:39:20;31.90;32.40
21355;DHT22;10835;50.148;19.760;2022-07-17T13:41:50;32.00;32.40
21355;DHT22;10835;50.148;19.760;2022-07-17T13:44:19;32.20;32.90
21355;DHT22;10835;50.148;19.760;2022-07-17T13:46:47;32.40;32.20
21355;DHT22;10835;50.148;19.760;2022-07-17T13:49:15;32.50;32.00
21355;DHT22;10835;50.148;19.760;2022-07-17T13:51:44;32.30;31.50
21355;DHT22;10835;50.148;19.760;2022-07-17T13:54:12;32.30;32.20
21355;DHT22;10835;50.148;19.760;2022-07-17T13:56:41;32.40;32.40
21355;DHT22;10835;50.148;19.760;2022-07-17T13:59:11;32.30;31.60
21355;DHT22;10835;50.148;19.760;2022-07-17T14:01:39;32.30;32.20
21355;DHT22;10835;50.148;19.760;2022-07-17T14:04:07;32.70;32.90
21355;DHT22;10835;50.148;19.760;2022-07-17T14:06:36;32.90;32.90
21355;DHT22;10835;50.148;19.760;2022-07-17T14:09:04;32.90;31.00
21355;DHT22;10835;50.148;19.760;2022-07-17T14:11:33;32.40;31.50
21355;DHT22;10835;50.148;19.760;2022-07-17T14:14:02;32.10;32.00
21355;DHT22;10835;50.148;19.760;2022-07-17T14:16:34;32.50;31.80
21355;DHT22;10835;50.148;19.760;2022-07-17T14:19:05;32.40;31.30
21355;DHT22;10835;50.148;19.760;2022-07-17T14:21:35;32.60;31.40
21355;DHT22;10835;50.148;19.760;2022-07-17T14:24:05;32.60;31.80
21355;DHT22;10835;50.148;19.760;2022-07-17T14:26:35;32.60;31.80
21355;DHT22;10835;50.148;19.760;2022-07-17T14:29:03;32.90;31.30
21355;DHT22;10835;50.148;19.760;2022-07-17T14:31:33;33.10;32.00
21355;DHT22;10835;50.148;19.760;2022-07-17T14:34:09;33.00;30.60
21355;DHT22;10835;50.148;19.760;2022-07-17T14:36:38;33.40;30.90
21355;DHT22;10835;50.148;19.760;2022-07-17T14:39:06;33.30;30.90
21355;DHT22;10835;50.148;19.760;2022-07-17T14:41:35;33.20;30.60
21355;DHT22;10835;50.148;19.760;2022-07-17T14:44:03;33.00;30.10
21355;DHT22;10835;50.148;19.760;2022-07-17T14:46:32;32.90;30.50
21355;DHT22;10835;50.148;19.760;2022-07-17T14:49:01;33.00;29.90
21355;DHT22;10835;50.148;19.760;2022-07-17T14:51:30;33.00;30.90
21355;DHT22;10835;50.148;19.760;2022-07-17T14:53:58;32.80;30.50
21355;DHT22;10835;50.148;19.760;2022-07-17T14:56:27;32.90;30.80
21355;DHT22;10835;50.148;19.760;2022-07-17T14:58:55;32.80;30.80
21355;DHT22;10835;50.148;19.760;2022-07-17T15:01:27;32.80;31.20
21355;DHT22;10835;50.148;19.760;2022-07-17T15:03:55;32.80;30.90
21355;DHT22;10835;50.148;19.760;2022-07-17T15:06:25;33.00;31.50
21355;DHT22;10835;50.148;19.760;2022-07-17T15:08:53;32.90;31.20
21355;DHT22;10835;50.148;19.760;2022-07-17T15:11:22;32.80;31.40
21355;DHT22;10835;50.148;19.760;2022-07-17T15:13:50;32.90;31.20
21355;DHT22;10835;50.148;19.760;2022-07-17T15:16:18;32.50;30.40
21355;DHT22;10835;50.148;19.760;2022-07-17T15:18:47;32.70;30.70
21355;DHT22;10835;50.148;19.760;2022-07-17T15:21:15;32.80;31.40
21355;DHT22;10835;50.148;19.760;2022-07-17T15:24:05;33.00;32.00
21355;DHT22;10835;50.148;19.760;2022-07-17T15:26:33;33.00;30.60
21355;DHT22;10835;50.148;19.760;2022-07-17T15:29:02;32.70;31.50
21355;DHT22;10835;50.148;19.760;2022-07-17T15:31:31;32.50;31.20